sensor_id;sensor_type;location;lat;lon;timestamp;temperature;humidity
66598;DHT22;57424;53.128;6.406;2023-04-22T00:02:03;20.80;47.90
66598;DHT22;57424;53.128;6.406;2023-04-22T00:04:28;20.80;47.90
66598;DHT22;57424;53.128;6.406;2023-04-22T00:06:54;20.70;48.00
66598;DHT22;57424;53.128;6.406;2023-04-22T00:09:20;20.70;48.00
66598;DHT22;57424;53.128;6.406;2023-04-22T00:11:46;20.70;48.10
66598;DHT22;57424;53.128;6.406;2023-04-22T00:14:12;20.70;48.10
66598;DHT22;57424;53.128;6.406;2023-04-22T00:16:37;20.60;48.10
66598;DHT22;57424;53.128;6.406;2023-04-22T00:19:03;20.60;48.20
66598;DHT22;57424;53.128;6.406;2023-04-22T00:21:29;20.60;48.20
66598;DHT22;57424;53.128;6.406;2023-04-22T00:23:55;20.60;48.30
66598;DHT22;57424;53.128;6.406;2023-04-22T00:26:21;20.60;48.40
66598;DHT22;57424;53.128;6.406;2023-04-22T00:28:46;20.50;48.40
66598;DHT22;57424;53.128;6.406;2023-04-22T00:31:12;20.50;48.40
66598;DHT22;57424;53.128;6.406;2023-04-22T00:33:37;20.50;48.50
66598;DHT22;57424;53.128;6.406;2023-04-22T00:36:03;20.50;48.50
66598;DHT22;57424;53.128;6.406;2023-04-22T00:38:29;20.50;48.60
66598;DHT22;57424;53.128;6.406;2023-04-22T00:40:54;20.40;48.50
66598;DHT22;57424;53.128;6.406;2023-04-22T00:43:21;20.40;48.60
66598;DHT22;57424;53.128;6.406;2023-04-22T00:45:46;20.40;48.60
66598;DHT22;57424;53.128;6.406;2023-04-22T00:48:14;20.40;48.70
66598;DHT22;57424;53.128;6.406;2023-04-22T00:50:39;20.30;48.70
66598;DHT22;57424;53.128;6.406;2023-04-22T00:53:05;20.30;48.70
66598;DHT22;57424;53.128;6.406;2023-04-22T00:55:31;20.30;48.70
66598;DHT22;57424;53.128;6.406;2023-04-22T00:57:57;20.30;48.80
66598;DHT22;57424;53.128;6.406;2023-04-22T01:00:25;20.30;49.50
66598;DHT22;57424;53.128;6.406;2023-04-22T01:02:55;20.30;48.80
66598;DHT22;57424;53.128;6.406;2023-04-22T01:05:23;20.30;48.80
66598;DHT22;57424;53.128;6.406;2023-04-22T01:07:48;20.30;48.90
66598;DHT22;57424;53.128;6.406;2023-04-22T01:10:15;20.20;48.90
66598;DHT22;57424;53.128;6.406;2023-04-22T01:12:41;20.20;48.90
66598;DHT22;57424;53.128;6.406;2023-04-22T01:15:07;20.20;49.00
66598;DHT22;57424;53.128;6.406;2023-04-22T01:17:33;20.20;49.00
66598;DHT22;57424;53.128;6.406;2023-04-22T01:19:59;20.20;49.00
66598;DHT22;57424;53.128;6.406;2023-04-22T01:22:31;20.20;49.00
66598;DHT22;57424;53.128;6.406;2023-04-22T01:24:59;20.20;49.10
66598;DHT22;57424;53.128;6.406;2023-04-22T01:27:26;20.20;49.10
66598;DHT22;57424;53.128;6.406;2023-04-22T01:29:52;20.20;49.10
66598;DHT22;57424;53.128;6.406;2023-04-22T01:32:17;20.10;49.10
66598;DHT22;57424;53.128;6.406;2023-04-22T01:34:43;20.10;49.10
66598;DHT22;57424;53.128;6.406;2023-04-22T01:37:09;20.10;49.10
66598;DHT22;57424;53.128;6.406;2023-04-22T01:39:35;20.10;49.10
66598;DHT22;57424;53.128;6.406;2023-04-22T01:42:02;20.10;49.10
66598;DHT22;57424;53.128;6.406;2023-04-22T01:44:28;20.10;49.20
66598;DHT22;57424;53.128;6.406;2023-04-22T01:46:53;20.10;49.20
66598;DHT22;57424;53.128;6.406;2023-04-22T01:49:19;20.10;49.20
66598;DHT22;57424;53.128;6.406;2023-04-22T01:51:45;20.00;49.20
66598;DHT22;57424;53.128;6.406;2023-04-22T01:54:10;20.00;49.20
66598;DHT22;57424;53.128;6.406;2023-04-22T01:56:36;20.10;49.20
66598;DHT22;57424;53.128;6.406;2023-04-22T01:59:05;20.10;49.20
66598;DHT22;57424;53.128;6.406;2023-04-22T02:01:30;20.00;49.20
66598;DHT22;57424;53.128;6.406;2023-04-22T02:03:56;20.00;49.20
66598;DHT22;57424;53.128;6.406;2023-04-22T02:06:21;20.00;49.20
66598;DHT22;57424;53.128;6.406;2023-04-22T02:08:47;20.00;49.20
66598;DHT22;57424;53.128;6.406;2023-04-22T02:11:12;20.00;49.20
66598;DHT22;57424;53.128;6.406;2023-04-22T02:13:39;20.00;49.20
66598;DHT22;57424;53.128;6.406;2023-04-22T02:16:06;20.00;49.30
66598;DHT22;57424;53.128;6.406;2023-04-22T02:18:31;20.00;49.30
66598;DHT22;57424;53.128;6.406;2023-04-22T02:20:57;20.00;49.30
66598;DHT22;57424;53.128;6.406;2023-04-22T02:23:23;19.90;49.20
66598;DHT22;57424;53.128;6.406;2023-04-22T02:25:49;20.00;49.20
66598;DHT22;57424;53.128;6.406;2023-04-22T02:28:16;20.00;49.20
66598;DHT22;57424;53.128;6.406;2023-04-22T02:30:42;19.90;49.20
66598;DHT22;57424;53.128;6.406;2023-04-22T02:33:08;19.90;49.20
66598;DHT22;57424;53.128;6.406;2023-04-22T02:35:33;19.90;49.30
66598;DHT22;57424;53.128;6.406;2023-04-22T02:37:59;19.90;49.20
66598;DHT22;57424;53.128;6.406;2023-04-22T02:40:24;19.90;49.30
66598;DHT22;57424;53.128;6.406;2023-04-22T02:42:51;19.90;49.30
66598;DHT22;57424;53.128;6.406;2023-04-22T02:45:16;19.90;49.30
66598;DHT22;57424;53.128;6.406;2023-04-22T02:47:42;19.90;49.30
66598;DHT22;57424;53.128;6.406;2023-04-22T02:50:08;19.90;49.30
66598;DHT22;57424;53.128;6.406;2023-04-22T02:52:33;19.90;49.30
66598;DHT22;57424;53.128;6.406;2023-04-22T02:54:59;19.90;49.30
66598;DHT22;57424;53.128;6.406;2023-04-22T02:57:25;19.90;49.30
66598;DHT22;57424;53.128;6.406;2023-04-22T02:59:51;19.90;49.30
66598;DHT22;57424;53.128;6.406;2023-04-22T03:02:17;19.90;49.30
66598;DHT22;57424;53.128;6.406;2023-04-22T03:04:42;19.80;49.20
66598;DHT22;57424;53.128;6.406;2023-04-22T03:07:08;19.80;49.30
66598;DHT22;57424;53.128;6.406;2023-04-22T03:09:33;19.80;49.30
66598;DHT22;57424;53.128;6.406;2023-04-22T03:11:59;19.80;49.30
66598;DHT22;57424;53.128;6.406;2023-04-22T03:14:24;19.80;49.30
66598;DHT22;57424;53.128;6.406;2023-04-22T03:16:50;19.80;49.30
66598;DHT22;57424;53.128;6.406;2023-04-22T03:19:16;19.80;49.30
66598;DHT22;57424;53.128;6.406;2023-04-22T03:21:41;19.80;49.30
66598;DHT22;57424;53.128;6.406;2023-04-22T03:24:07;19.80;49.30
66598;DHT22;57424;53.128;6.406;2023-04-22T03:26:32;19.80;49.30
66598;DHT22;57424;53.128;6.406;2023-04-22T03:28:58;19.80;49.30
66598;DHT22;57424;53.128;6.406;2023-04-22T03:31:24;19.80;49.30
66598;DHT22;57424;53.128;6.406;2023-04-22T03:33:49;19.70;49.30
66598;DHT22;57424;53.128;6.406;2023-04-22T03:36:15;19.70;49.30
66598;DHT22;57424;53.128;6.406;2023-04-22T03:38:40;19.70;49.30
66598;DHT22;57424;53.128;6.406;2023-04-22T03:41:06;19.70;49.30
66598;DHT22;57424;53.128;6.406;2023-04-22T03:43:31;19.70;49.30
66598;DHT22;57424;53.128;6.406;2023-04-22T03:45:58;19.70;49.30
66598;DHT22;57424;53.128;6.406;2023-04-22T03:48:24;19.70;49.30
66598;DHT22;57424;53.128;6.406;2023-04-22T03:50:49;19.70;49.30
66598;DHT22;57424;53.128;6.406;2023-04-22T03:53:15;19.70;49.30
66598;DHT22;57424;53.128;6.406;2023-04-22T03:55:40;19.70;49.30
66598;DHT22;57424;53.128;6.406;2023-04-22T03:58:06;19.70;49.30
66598;DHT22;57424;53.128;6.406;2023-04-22T04:00:32;19.70;49.30
66598;DHT22;57424;53.128;6.406;2023-04-22T04:02:58;19.70;49.30
66598;DHT22;57424;53.128;6.406;2023-04-22T04:05:23;19.60;49.30
66598;DHT22;57424;53.128;6.406;2023-04-22T04:07:49;19.70;49.30
66598;DHT22;57424;53.128;6.406;2023-04-22T04:10:15;19.70;49.30
66598;DHT22;57424;53.128;6.406;2023-04-22T04:12:40;19.60;49.30
66598;DHT22;57424;53.128;6.406;2023-04-22T04:15:06;19.70;49.30
66598;DHT22;57424;53.128;6.406;2023-04-22T04:17:32;19.70;49.30
66598;DHT22;57424;53.128;6.406;2023-04-22T04:19:58;19.60;49.30
66598;DHT22;57424;53.128;6.406;2023-04-22T04:22:24;19.60;49.30
66598;DHT22;57424;53.128;6.406;2023-04-22T04:24:49;19.60;49.30
66598;DHT22;57424;53.128;6.406;2023-04-22T04:27:16;19.60;49.30
66598;DHT22;57424;53.128;6.406;2023-04-22T04:29:42;19.60;49.30
66598;DHT22;57424;53.128;6.406;2023-04-22T04:32:07;19.60;49.30
66598;DHT22;57424;53.128;6.406;2023-04-22T04:34:34;19.60;49.30
66598;DHT22;57424;53.128;6.406;2023-04-22T04:36:59;19.60;49.30
66598;DHT22;57424;53.128;6.406;2023-04-22T04:39:25;19.60;49.20
66598;DHT22;57424;53.128;6.406;2023-04-22T04:41:52;19.60;49.20
66598;DHT22;57424;53.128;6.406;2023-04-22T04:44:20;19.60;49.30
66598;DHT22;57424;53.128;6.406;2023-04-22T04:46:46;19.60;49.20
66598;DHT22;57424;53.128;6.406;2023-04-22T04:49:12;19.60;49.30
66598;DHT22;57424;53.128;6.406;2023-04-22T04:51:38;19.60;49.30
66598;DHT22;57424;53.128;6.406;2023-04-22T04:54:04;19.60;49.30
66598;DHT22;57424;53.128;6.406;2023-04-22T04:56:29;19.50;49.20
66598;DHT22;57424;53.128;6.406;2023-04-22T04:58:56;19.60;49.30
66598;DHT22;57424;53.128;6.406;2023-04-22T05:01:21;19.50;49.20
66598;DHT22;57424;53.128;6.406;2023-04-22T05:03:47;19.50;49.20
66598;DHT22;57424;53.128;6.406;2023-04-22T05:06:13;19.50;49.20
66598;DHT22;57424;53.128;6.406;2023-04-22T05:08:38;19.50;49.20
66598;DHT22;57424;53.128;6.406;2023-04-22T05:11:04;19.50;49.20
66598;DHT22;57424;53.128;6.406;2023-04-22T05:13:29;19.50;49.20
66598;DHT22;57424;53.128;6.406;2023-04-22T05:15:56;19.50;49.20
66598;DHT22;57424;53.128;6.406;2023-04-22T05:18:21;19.50;49.20
66598;DHT22;57424;53.128;6.406;2023-04-22T05:20:47;19.50;49.30
66598;DHT22;57424;53.128;6.406;2023-04-22T05:23:13;19.50;49.20
66598;DHT22;57424;53.128;6.406;2023-04-22T05:25:38;19.50;49.30
66598;DHT22;57424;53.128;6.406;2023-04-22T05:28:04;19.50;50.00
66598;DHT22;57424;53.128;6.406;2023-04-22T05:30:30;19.50;49.30
66598;DHT22;57424;53.128;6.406;2023-04-22T05:32:55;19.50;49.30
66598;DHT22;57424;53.128;6.406;2023-04-22T05:35:21;19.50;49.30
66598;DHT22;57424;53.128;6.406;2023-04-22T05:37:46;19.50;49.30
66598;DHT22;57424;53.128;6.406;2023-04-22T05:40:12;19.50;49.30
66598;DHT22;57424;53.128;6.406;2023-04-22T05:42:37;19.40;49.20
66598;DHT22;57424;53.128;6.406;2023-04-22T05:45:03;19.40;49.20
66598;DHT22;57424;53.128;6.406;2023-04-22T05:47:29;19.40;49.30
66598;DHT22;57424;53.128;6.406;2023-04-22T05:49:55;19.40;49.30
66598;DHT22;57424;53.128;6.406;2023-04-22T05:52:21;19.40;49.20
66598;DHT22;57424;53.128;6.406;2023-04-22T05:54:46;19.40;49.30
66598;DHT22;57424;53.128;6.406;2023-04-22T05:57:12;19.40;49.30
66598;DHT22;57424;53.128;6.406;2023-04-22T05:59:37;19.40;49.30
66598;DHT22;57424;53.128;6.406;2023-04-22T06:02:03;19.40;49.30
66598;DHT22;57424;53.128;6.406;2023-04-22T06:04:28;19.40;49.30
66598;DHT22;57424;53.128;6.406;2023-04-22T06:06:55;19.40;49.30
66598;DHT22;57424;53.128;6.406;2023-04-22T06:09:21;19.40;49.30
66598;DHT22;57424;53.128;6.406;2023-04-22T06:11:47;19.40;49.30
66598;DHT22;57424;53.128;6.406;2023-04-22T06:14:12;19.40;49.30
66598;DHT22;57424;53.128;6.406;2023-04-22T06:16:39;19.40;49.30
66598;DHT22;57424;53.128;6.406;2023-04-22T06:19:05;19.40;49.30
66598;DHT22;57424;53.128;6.406;2023-04-22T06:21:31;19.40;49.40
66598;DHT22;57424;53.128;6.406;2023-04-22T06:24:01;19.40;49.40
66598;DHT22;57424;53.128;6.406;2023-04-22T06:26:29;19.40;49.40
66598;DHT22;57424;53.128;6.406;2023-04-22T06:28:55;19.40;49.40
66598;DHT22;57424;53.128;6.406;2023-04-22T06:31:20;19.40;49.40
66598;DHT22;57424;53.128;6.406;2023-04-22T06:33:46;19.40;49.40
66598;DHT22;57424;53.128;6.406;2023-04-22T06:36:12;19.40;49.40
66598;DHT22;57424;53.128;6.406;2023-04-22T06:38:38;19.40;49.40
66598;DHT22;57424;53.128;6.406;2023-04-22T06:41:03;19.40;49.40
66598;DHT22;57424;53.128;6.406;2023-04-22T06:43:29;19.40;49.40
66598;DHT22;57424;53.128;6.406;2023-04-22T06:45:55;19.40;49.40
66598;DHT22;57424;53.128;6.406;2023-04-22T06:48:21;19.40;49.40
66598;DHT22;57424;53.128;6.406;2023-04-22T06:50:46;19.40;49.40
66598;DHT22;57424;53.128;6.406;2023-04-22T06:53:12;19.40;49.50
66598;DHT22;57424;53.128;6.406;2023-04-22T06:55:37;19.40;49.50
66598;DHT22;57424;53.128;6.406;2023-04-22T06:58:03;19.40;49.60
66598;DHT22;57424;53.128;6.406;2023-04-22T07:00:30;19.40;49.70
66598;DHT22;57424;53.128;6.406;2023-04-22T07:02:56;19.40;49.80
66598;DHT22;57424;53.128;6.406;2023-04-22T07:05:22;19.40;49.80
66598;DHT22;57424;53.128;6.406;2023-04-22T07:07:48;19.40;49.90
66598;DHT22;57424;53.128;6.406;2023-04-22T07:10:14;19.40;49.80
66598;DHT22;57424;53.128;6.406;2023-04-22T07:12:40;19.40;49.80
66598;DHT22;57424;53.128;6.406;2023-04-22T07:15:06;19.50;49.90
66598;DHT22;57424;53.128;6.406;2023-04-22T07:17:32;19.50;50.00
66598;DHT22;57424;53.128;6.406;2023-04-22T07:19:57;19.50;50.00
66598;DHT22;57424;53.128;6.406;2023-04-22T07:22:23;19.50;50.10
66598;DHT22;57424;53.128;6.406;2023-04-22T07:24:48;19.50;50.20
66598;DHT22;57424;53.128;6.406;2023-04-22T07:27:14;19.50;50.30
66598;DHT22;57424;53.128;6.406;2023-04-22T07:29:40;19.50;50.30
66598;DHT22;57424;53.128;6.406;2023-04-22T07:32:05;19.50;50.30
66598;DHT22;57424;53.128;6.406;2023-04-22T07:34:31;19.50;50.40
66598;DHT22;57424;53.128;6.406;2023-04-22T07:36:57;19.50;50.50
66598;DHT22;57424;53.128;6.406;2023-04-22T07:39:24;19.50;50.50
66598;DHT22;57424;53.128;6.406;2023-04-22T07:41:49;19.50;50.50
66598;DHT22;57424;53.128;6.406;2023-04-22T07:44:15;19.50;50.50
66598;DHT22;57424;53.128;6.406;2023-04-22T07:46:46;19.50;50.50
66598;DHT22;57424;53.128;6.406;2023-04-22T07:49:12;19.50;50.50
66598;DHT22;57424;53.128;6.406;2023-04-22T07:51:44;19.50;50.50
66598;DHT22;57424;53.128;6.406;2023-04-22T07:54:10;19.50;50.60
66598;DHT22;57424;53.128;6.406;2023-04-22T07:56:35;19.50;50.60
66598;DHT22;57424;53.128;6.406;2023-04-22T07:59:02;19.50;50.60
66598;DHT22;57424;53.128;6.406;2023-04-22T08:01:27;19.60;50.80
66598;DHT22;57424;53.128;6.406;2023-04-22T08:03:53;19.60;50.80
66598;DHT22;57424;53.128;6.406;2023-04-22T08:06:18;19.60;50.80
66598;DHT22;57424;53.128;6.406;2023-04-22T08:08:44;19.60;50.80
66598;DHT22;57424;53.128;6.406;2023-04-22T08:11:10;19.60;50.90
66598;DHT22;57424;53.128;6.406;2023-04-22T08:13:35;19.60;50.90
66598;DHT22;57424;53.128;6.406;2023-04-22T08:16:01;19.70;50.90
66598;DHT22;57424;53.128;6.406;2023-04-22T08:18:31;19.60;50.80
66598;DHT22;57424;53.128;6.406;2023-04-22T08:20:57;19.70;50.80
66598;DHT22;57424;53.128;6.406;2023-04-22T08:23:22;19.70;50.80
66598;DHT22;57424;53.128;6.406;2023-04-22T08:25:48;19.70;50.70
66598;DHT22;57424;53.128;6.406;2023-04-22T08:28:14;19.70;50.70
66598;DHT22;57424;53.128;6.406;2023-04-22T08:30:40;19.80;50.80
66598;DHT22;57424;53.128;6.406;2023-04-22T08:33:05;19.80;50.80
66598;DHT22;57424;53.128;6.406;2023-04-22T08:35:36;19.80;50.70
66598;DHT22;57424;53.128;6.406;2023-04-22T08:38:01;19.80;50.70
66598;DHT22;57424;53.128;6.406;2023-04-22T08:40:28;19.80;50.60
66598;DHT22;57424;53.128;6.406;2023-04-22T08:42:54;19.90;50.70
66598;DHT22;57424;53.128;6.406;2023-04-22T08:45:20;19.90;50.60
66598;DHT22;57424;53.128;6.406;2023-04-22T08:47:48;19.90;50.60
66598;DHT22;57424;53.128;6.406;2023-04-22T08:50:14;19.90;50.60
66598;DHT22;57424;53.128;6.406;2023-04-22T08:52:41;20.00;50.70
66598;DHT22;57424;53.128;6.406;2023-04-22T08:55:07;20.00;50.60
66598;DHT22;57424;53.128;6.406;2023-04-22T08:57:35;20.00;50.60
66598;DHT22;57424;53.128;6.406;2023-04-22T09:00:02;20.10;50.60
66598;DHT22;57424;53.128;6.406;2023-04-22T09:02:31;20.10;50.60
66598;DHT22;57424;53.128;6.406;2023-04-22T09:04:57;20.20;50.70
66598;DHT22;57424;53.128;6.406;2023-04-22T09:07:25;20.20;50.60
66598;DHT22;57424;53.128;6.406;2023-04-22T09:09:53;20.20;50.60
66598;DHT22;57424;53.128;6.406;2023-04-22T09:12:19;20.20;50.60
66598;DHT22;57424;53.128;6.406;2023-04-22T09:14:45;20.30;50.60
66598;DHT22;57424;53.128;6.406;2023-04-22T09:17:12;20.30;50.60
66598;DHT22;57424;53.128;6.406;2023-04-22T09:19:39;20.30;50.60
66598;DHT22;57424;53.128;6.406;2023-04-22T09:22:04;20.40;50.60
66598;DHT22;57424;53.128;6.406;2023-04-22T09:24:33;20.30;50.60
66598;DHT22;57424;53.128;6.406;2023-04-22T09:27:00;20.40;50.70
66598;DHT22;57424;53.128;6.406;2023-04-22T09:29:30;20.40;50.70
66598;DHT22;57424;53.128;6.406;2023-04-22T09:31:56;20.50;50.70
66598;DHT22;57424;53.128;6.406;2023-04-22T09:34:21;20.50;50.70
66598;DHT22;57424;53.128;6.406;2023-04-22T09:36:49;20.50;50.70
66598;DHT22;57424;53.128;6.406;2023-04-22T09:39:16;20.50;50.70
66598;DHT22;57424;53.128;6.406;2023-04-22T09:41:41;20.60;50.80
66598;DHT22;57424;53.128;6.406;2023-04-22T09:44:10;20.60;50.70
66598;DHT22;57424;53.128;6.406;2023-04-22T09:46:41;20.60;50.70
66598;DHT22;57424;53.128;6.406;2023-04-22T09:49:07;20.60;50.70
66598;DHT22;57424;53.128;6.406;2023-04-22T09:51:32;20.70;50.80
66598;DHT22;57424;53.128;6.406;2023-04-22T09:54:04;20.70;50.70
66598;DHT22;57424;53.128;6.406;2023-04-22T09:59:07;20.70;50.70
66598;DHT22;57424;53.128;6.406;2023-04-22T10:01:40;20.70;50.80
66598;DHT22;57424;53.128;6.406;2023-04-22T10:04:07;20.80;50.80
66598;DHT22;57424;53.128;6.406;2023-04-22T10:06:34;20.80;50.80
66598;DHT22;57424;53.128;6.406;2023-04-22T10:09:00;20.80;51.00
66598;DHT22;57424;53.128;6.406;2023-04-22T10:11:26;20.80;50.80
66598;DHT22;57424;53.128;6.406;2023-04-22T10:13:52;20.80;50.70
66598;DHT22;57424;53.128;6.406;2023-04-22T10:16:20;20.80;50.70
66598;DHT22;57424;53.128;6.406;2023-04-22T10:18:47;20.90;50.90
66598;DHT22;57424;53.128;6.406;2023-04-22T10:21:13;20.90;50.80
66598;DHT22;57424;53.128;6.406;2023-04-22T10:23:45;20.90;50.80
66598;DHT22;57424;53.128;6.406;2023-04-22T10:26:11;20.90;50.80
66598;DHT22;57424;53.128;6.406;2023-04-22T10:28:42;20.90;50.90
66598;DHT22;57424;53.128;6.406;2023-04-22T10:31:28;21.00;50.90
66598;DHT22;57424;53.128;6.406;2023-04-22T10:34:12;21.00;50.80
66598;DHT22;57424;53.128;6.406;2023-04-22T10:39:22;21.00;50.80
66598;DHT22;57424;53.128;6.406;2023-04-22T10:41:53;21.00;50.70
66598;DHT22;57424;53.128;6.406;2023-04-22T10:44:20;21.00;50.70
66598;DHT22;57424;53.128;6.406;2023-04-22T10:49:28;21.00;50.80
66598;DHT22;57424;53.128;6.406;2023-04-22T10:51:58;21.00;50.80
66598;DHT22;57424;53.128;6.406;2023-04-22T10:57:03;21.00;50.90
66598;DHT22;57424;53.128;6.406;2023-04-22T10:59:30;21.00;51.00
66598;DHT22;57424;53.128;6.406;2023-04-22T11:02:05;21.00;51.10
66598;DHT22;57424;53.128;6.406;2023-04-22T11:04:32;21.00;51.10
66598;DHT22;57424;53.128;6.406;2023-04-22T11:09:40;21.10;51.40
66598;DHT22;57424;53.128;6.406;2023-04-22T11:14:58;21.00;51.50
66598;DHT22;57424;53.128;6.406;2023-04-22T11:17:23;21.00;51.50
66598;DHT22;57424;53.128;6.406;2023-04-22T11:19:49;21.00;51.60
66598;DHT22;57424;53.128;6.406;2023-04-22T11:22:23;21.10;51.70
66598;DHT22;57424;53.128;6.406;2023-04-22T11:24:56;21.10;51.80
66598;DHT22;57424;53.128;6.406;2023-04-22T11:27:21;21.10;51.90
66598;DHT22;57424;53.128;6.406;2023-04-22T11:30:03;21.00;51.90
66598;DHT22;57424;53.128;6.406;2023-04-22T11:32:30;21.10;52.10
66598;DHT22;57424;53.128;6.406;2023-04-22T11:34:57;21.10;52.20
66598;DHT22;57424;53.128;6.406;2023-04-22T11:37:23;21.10;52.20
66598;DHT22;57424;53.128;6.406;2023-04-22T11:39:49;21.10;52.30
66598;DHT22;57424;53.128;6.406;2023-04-22T11:42:21;21.10;52.40
66598;DHT22;57424;53.128;6.406;2023-04-22T11:44:50;21.10;52.50
66598;DHT22;57424;53.128;6.406;2023-04-22T11:47:16;21.10;52.50
66598;DHT22;57424;53.128;6.406;2023-04-22T11:49:54;21.10;52.60
66598;DHT22;57424;53.128;6.406;2023-04-22T11:52:21;21.10;52.70
66598;DHT22;57424;53.128;6.406;2023-04-22T11:54:46;21.10;52.70
66598;DHT22;57424;53.128;6.406;2023-04-22T11:57:12;21.10;52.80
66598;DHT22;57424;53.128;6.406;2023-04-22T11:59:40;21.10;52.90
66598;DHT22;57424;53.128;6.406;2023-04-22T12:02:07;21.10;52.90
66598;DHT22;57424;53.128;6.406;2023-04-22T12:04:40;21.10;53.10
66598;DHT22;57424;53.128;6.406;2023-04-22T12:07:06;21.10;53.10
66598;DHT22;57424;53.128;6.406;2023-04-22T12:09:33;21.10;53.10
66598;DHT22;57424;53.128;6.406;2023-04-22T12:11:58;21.10;53.20
66598;DHT22;57424;53.128;6.406;2023-04-22T12:14:31;21.10;53.30
66598;DHT22;57424;53.128;6.406;2023-04-22T12:16:57;21.10;53.30
66598;DHT22;57424;53.128;6.406;2023-04-22T12:19:25;21.10;53.30
66598;DHT22;57424;53.128;6.406;2023-04-22T12:21:57;21.10;53.40
66598;DHT22;57424;53.128;6.406;2023-04-22T12:24:27;21.10;53.50
66598;DHT22;57424;53.128;6.406;2023-04-22T12:26:53;21.10;53.50
66598;DHT22;57424;53.128;6.406;2023-04-22T12:29:32;21.20;53.50
66598;DHT22;57424;53.128;6.406;2023-04-22T12:31:58;21.10;53.60
66598;DHT22;57424;53.128;6.406;2023-04-22T12:34:24;21.10;53.60
66598;DHT22;57424;53.128;6.406;2023-04-22T12:36:49;21.20;53.60
66598;DHT22;57424;53.128;6.406;2023-04-22T12:39:15;21.10;53.60
66598;DHT22;57424;53.128;6.406;2023-04-22T12:41:41;21.20;53.70
66598;DHT22;57424;53.128;6.406;2023-04-22T12:44:06;21.10;53.60
66598;DHT22;57424;53.128;6.406;2023-04-22T12:46:33;21.10;53.60
66598;DHT22;57424;53.128;6.406;2023-04-22T12:48:59;21.10;53.60
66598;DHT22;57424;53.128;6.406;2023-04-22T12:51:25;21.20;53.70
66598;DHT22;57424;53.128;6.406;2023-04-22T12:53:51;21.20;53.70
66598;DHT22;57424;53.128;6.406;2023-04-22T12:56:17;21.10;53.70
66598;DHT22;57424;53.128;6.406;2023-04-22T12:58:42;21.20;53.70
66598;DHT22;57424;53.128;6.406;2023-04-22T13:01:08;21.20;53.60
66598;DHT22;57424;53.128;6.406;2023-04-22T13:03:33;21.20;53.60
66598;DHT22;57424;53.128;6.406;2023-04-22T13:05:59;21.10;53.60
66598;DHT22;57424;53.128;6.406;2023-04-22T13:08:25;21.20;53.60
66598;DHT22;57424;53.128;6.406;2023-04-22T13:10:52;21.10;53.50
66598;DHT22;57424;53.128;6.406;2023-04-22T13:13:18;21.10;53.70
66598;DHT22;57424;53.128;6.406;2023-04-22T13:15:44;21.10;53.50
66598;DHT22;57424;53.128;6.406;2023-04-22T13:18:09;21.10;53.50
66598;DHT22;57424;53.128;6.406;2023-04-22T13:20:35;21.10;53.50
66598;DHT22;57424;53.128;6.406;2023-04-22T13:23:01;21.10;53.50
66598;DHT22;57424;53.128;6.406;2023-04-22T13:25:26;21.10;53.40
66598;DHT22;57424;53.128;6.406;2023-04-22T13:27:52;21.10;53.40
66598;DHT22;57424;53.128;6.406;2023-04-22T13:30:17;21.10;53.30
66598;DHT22;57424;53.128;6.406;2023-04-22T13:32:44;21.10;53.30
66598;DHT22;57424;53.128;6.406;2023-04-22T13:35:10;21.10;53.30
66598;DHT22;57424;53.128;6.406;2023-04-22T13:37:35;21.10;53.20
66598;DHT22;57424;53.128;6.406;2023-04-22T13:40:02;21.10;53.20
66598;DHT22;57424;53.128;6.406;2023-04-22T13:42:30;21.10;53.10
66598;DHT22;57424;53.128;6.406;2023-04-22T13:44:55;21.10;53.00
66598;DHT22;57424;53.128;6.406;2023-04-22T13:47:21;21.10;53.00
66598;DHT22;57424;53.128;6.406;2023-04-22T13:49:46;21.10;52.90
66598;DHT22;57424;53.128;6.406;2023-04-22T13:52:12;21.10;52.80
66598;DHT22;57424;53.128;6.406;2023-04-22T13:54:37;21.10;52.80
66598;DHT22;57424;53.128;6.406;2023-04-22T13:57:03;21.10;52.80
66598;DHT22;57424;53.128;6.406;2023-04-22T13:59:30;21.00;52.80
66598;DHT22;57424;53.128;6.406;2023-04-22T14:01:55;21.00;52.70
66598;DHT22;57424;53.128;6.406;2023-04-22T14:04:21;21.00;52.80
66598;DHT22;57424;53.128;6.406;2023-04-22T14:06:46;21.00;52.80
66598;DHT22;57424;53.128;6.406;2023-04-22T14:09:12;21.00;52.80
66598;DHT22;57424;53.128;6.406;2023-04-22T14:11:38;21.00;52.90
66598;DHT22;57424;53.128;6.406;2023-04-22T14:14:03;21.00;52.90
66598;DHT22;57424;53.128;6.406;2023-04-22T14:16:30;21.10;53.70
66598;DHT22;57424;53.128;6.406;2023-04-22T14:18:56;21.00;53.00
66598;DHT22;57424;53.128;6.406;2023-04-22T14:21:22;21.10;53.00
66598;DHT22;57424;53.128;6.406;2023-04-22T14:23:48;21.10;53.10
66598;DHT22;57424;53.128;6.406;2023-04-22T14:26:14;21.10;53.10
66598;DHT22;57424;53.128;6.406;2023-04-22T14:28:40;21.10;53.00
66598;DHT22;57424;53.128;6.406;2023-04-22T14:31:06;21.10;53.00
66598;DHT22;57424;53.128;6.406;2023-04-22T14:33:32;21.10;52.90
66598;DHT22;57424;53.128;6.406;2023-04-22T14:35:58;21.10;52.80
66598;DHT22;57424;53.128;6.406;2023-04-22T14:38:23;21.10;52.80
66598;DHT22;57424;53.128;6.406;2023-04-22T14:40:49;21.10;52.80
66598;DHT22;57424;53.128;6.406;2023-04-22T14:43:16;21.10;52.80
66598;DHT22;57424;53.128;6.406;2023-04-22T14:45:42;21.10;52.80
66598;DHT22;57424;53.128;6.406;2023-04-22T14:48:07;21.10;52.80
66598;DHT22;57424;53.128;6.406;2023-04-22T14:50:33;21.10;52.80
66598;DHT22;57424;53.128;6.406;2023-04-22T14:52:59;21.10;52.80
66598;DHT22;57424;53.128;6.406;2023-04-22T14:55:24;21.20;52.90
66598;DHT22;57424;53.128;6.406;2023-04-22T14:57:54;21.20;52.90
66598;DHT22;57424;53.128;6.406;2023-04-22T15:00:24;21.20;52.90
66598;DHT22;57424;53.128;6.406;2023-04-22T15:02:49;21.20;52.90
66598;DHT22;57424;53.128;6.406;2023-04-22T15:05:15;21.20;52.80
66598;DHT22;57424;53.128;6.406;2023-04-22T15:07:41;21.20;52.90
66598;DHT22;57424;53.128;6.406;2023-04-22T15:10:07;21.20;52.90
66598;DHT22;57424;53.128;6.406;2023-04-22T15:12:32;21.20;52.90
66598;DHT22;57424;53.128;6.406;2023-04-22T15:14:58;21.20;53.00
66598;DHT22;57424;53.128;6.406;2023-04-22T15:17:24;21.20;53.00
66598;DHT22;57424;53.128;6.406;2023-04-22T15:19:49;21.20;53.10
66598;DHT22;57424;53.128;6.406;2023-04-22T15:22:17;21.20;53.00
66598;DHT22;57424;53.128;6.406;2023-04-22T15:24:43;21.20;53.00
66598;DHT22;57424;53.128;6.406;2023-04-22T15:27:08;21.20;53.00
66598;DHT22;57424;53.128;6.406;2023-04-22T15:29:34;21.20;52.90
66598;DHT22;57424;53.128;6.406;2023-04-22T15:32:00;21.20;52.80
66598;DHT22;57424;53.128;6.406;2023-04-22T15:34:26;21.20;52.90
66598;DHT22;57424;53.128;6.406;2023-04-22T15:36:52;21.20;52.80
66598;DHT22;57424;53.128;6.406;2023-04-22T15:39:18;21.20;52.80
66598;DHT22;57424;53.128;6.406;2023-04-22T15:41:43;21.20;52.90